BEL4WF LHBP-EBBR
Flight info
| Callsign | BEL4WF |
|---|---|
| Flight time | 1h 49m |
| Altitude | 36000 |
| Route | BADOV2L BADOV DCT ABITU DCT MAVOR DCT KATQA DCT VOZ DCT OKG DCT MARZA DCT TEKTU DCT TESGA DCT UMUPU T880 BATTY BATTY7A |
| Aircraft | A320/M-SDE3FGHIRWY/LB1 |
Departure
| Time | 2026-05-07 11:07 |
|---|---|
| Airport | Budapest Liszt Ferenc International Airport (LHBP) |
Arrival
| Time | 2026-05-07 12:56 |
|---|---|
| Airport | Brussels Airport (EBBR) |
| Time | Latitude | Longitude | Altitude | Speed | Heading |
|---|---|---|---|---|---|
| 2026-05-07 10:17 | 47.43411 | 19.26129 | 469 ft | 0 kts | 131° |
| 2026-05-07 11:00 | 47.43416 | 19.26121 | 469 ft | 2 kts | 130° |
| 2026-05-07 11:00 | 47.43429 | 19.26099 | 469 ft | 3 kts | 128° |
| 2026-05-07 11:01 | 47.43441 | 19.26075 | 466 ft | 3 kts | 129° |
| 2026-05-07 11:01 | 47.43454 | 19.26053 | 467 ft | 3 kts | 141° |
| 2026-05-07 11:01 | 47.43469 | 19.26040 | 469 ft | 3 kts | 195° |
| 2026-05-07 11:01 | 47.43474 | 19.26042 | 468 ft | 0 kts | 220° |
| 2026-05-07 11:03 | 47.43472 | 19.26040 | 469 ft | 2 kts | 220° |
| 2026-05-07 11:04 | 47.43447 | 19.26008 | 467 ft | 7 kts | 220° |
| 2026-05-07 11:04 | 47.43422 | 19.25937 | 469 ft | 10 kts | 292° |
| 2026-05-07 11:04 | 47.43472 | 19.25848 | 468 ft | 13 kts | 307° |
| 2026-05-07 11:04 | 47.43528 | 19.25731 | 469 ft | 16 kts | 312° |
| 2026-05-07 11:05 | 47.43502 | 19.25599 | 469 ft | 16 kts | 221° |
| 2026-05-07 11:05 | 47.43416 | 19.25485 | 469 ft | 17 kts | 222° |
| 2026-05-07 11:05 | 47.43328 | 19.25364 | 469 ft | 18 kts | 222° |
| 2026-05-07 11:05 | 47.43232 | 19.25237 | 468 ft | 19 kts | 222° |
| 2026-05-07 11:06 | 47.43131 | 19.25101 | 466 ft | 20 kts | 223° |
| 2026-05-07 11:06 | 47.43070 | 19.24991 | 462 ft | 9 kts | 284° |
| 2026-05-07 11:06 | 47.43110 | 19.24917 | 462 ft | 12 kts | 313° |
| 2026-05-07 11:06 | 47.43296 | 19.24617 | 462 ft | 76 kts | 313° |
| 2026-05-07 11:07 | 47.43805 | 19.23798 | 463 ft | 138 kts | 313° |
| 2026-05-07 11:07 | 47.44577 | 19.22601 | 603 ft | 174 kts | 310° |
| 2026-05-07 11:07 | 47.45442 | 19.21339 | 1316 ft | 176 kts | 309° |
| 2026-05-07 11:07 | 47.46327 | 19.20097 | 2130 ft | 176 kts | 311° |
| 2026-05-07 11:08 | 47.47233 | 19.18886 | 2938 ft | 174 kts | 311° |
| 2026-05-07 11:08 | 47.48122 | 19.17723 | 3690 ft | 171 kts | 313° |
| 2026-05-07 11:08 | 47.49028 | 19.16623 | 4375 ft | 167 kts | 316° |
| 2026-05-07 11:08 | 47.49929 | 19.15579 | 5003 ft | 163 kts | 315° |
| 2026-05-07 11:09 | 47.50827 | 19.14535 | 5525 ft | 165 kts | 311° |
| 2026-05-07 11:09 | 47.51710 | 19.13299 | 5835 ft | 185 kts | 309° |
| 2026-05-07 11:09 | 47.52675 | 19.11885 | 6112 ft | 208 kts | 310° |
| 2026-05-07 11:09 | 47.53779 | 19.10322 | 6418 ft | 229 kts | 311° |
| 2026-05-07 11:10 | 47.55011 | 19.08653 | 6817 ft | 249 kts | 313° |
| 2026-05-07 11:10 | 47.56330 | 19.06936 | 7524 ft | 255 kts | 314° |
| 2026-05-07 11:10 | 47.57667 | 19.05239 | 8336 ft | 258 kts | 315° |
| 2026-05-07 11:10 | 47.59062 | 19.03495 | 8993 ft | 271 kts | 315° |
| 2026-05-07 11:11 | 47.60553 | 19.01645 | 9632 ft | 284 kts | 316° |
| 2026-05-07 11:11 | 47.62214 | 18.99962 | 10220 ft | 304 kts | 330° |
| 2026-05-07 11:11 | 47.64331 | 18.99063 | 10677 ft | 327 kts | 351° |
| 2026-05-07 11:11 | 47.66632 | 18.99292 | 11231 ft | 340 kts | 12° |
| 2026-05-07 11:12 | 47.68809 | 19.00731 | 12041 ft | 348 kts | 33° |
| 2026-05-07 11:12 | 47.70668 | 19.03076 | 12796 ft | 354 kts | 41° |
| 2026-05-07 11:12 | 47.72482 | 19.05576 | 13581 ft | 358 kts | 42° |
| 2026-05-07 11:12 | 47.74309 | 19.08122 | 14253 ft | 362 kts | 42° |
| 2026-05-07 11:13 | 47.76255 | 19.10524 | 14948 ft | 364 kts | 29° |
| 2026-05-07 11:13 | 47.78583 | 19.11891 | 15616 ft | 364 kts | 8° |
| 2026-05-07 11:13 | 47.81078 | 19.11952 | 16304 ft | 362 kts | 347° |
| 2026-05-07 11:13 | 47.83439 | 19.10712 | 16982 ft | 359 kts | 326° |
| 2026-05-07 11:14 | 47.85346 | 19.08404 | 17652 ft | 357 kts | 310° |
| 2026-05-07 11:14 | 47.87062 | 19.05670 | 18315 ft | 360 kts | 309° |
| 2026-05-07 11:14 | 47.88765 | 19.02943 | 18887 ft | 364 kts | 310° |
| 2026-05-07 11:14 | 47.90509 | 19.00151 | 19457 ft | 368 kts | 310° |
| 2026-05-07 11:15 | 47.92273 | 18.97334 | 20050 ft | 371 kts | 310° |
| 2026-05-07 11:15 | 47.94030 | 18.94525 | 20637 ft | 374 kts | 309° |
| 2026-05-07 11:15 | 47.95815 | 18.91669 | 21215 ft | 378 kts | 309° |
| 2026-05-07 11:15 | 47.97611 | 18.88793 | 21793 ft | 381 kts | 309° |
| 2026-05-07 11:16 | 47.99429 | 18.85880 | 22371 ft | 385 kts | 309° |
| 2026-05-07 11:16 | 48.01259 | 18.82944 | 22953 ft | 388 kts | 309° |
| 2026-05-07 11:16 | 48.03109 | 18.79985 | 23518 ft | 391 kts | 310° |
| 2026-05-07 11:16 | 48.04994 | 18.77018 | 24010 ft | 395 kts | 310° |
| 2026-05-07 11:17 | 48.06891 | 18.74069 | 24519 ft | 397 kts | 310° |
| 2026-05-07 11:17 | 48.08827 | 18.71068 | 25018 ft | 399 kts | 310° |
| 2026-05-07 11:17 | 48.10747 | 18.68088 | 25502 ft | 401 kts | 310° |
| 2026-05-07 11:17 | 48.12694 | 18.65057 | 25981 ft | 403 kts | 310° |
| 2026-05-07 11:18 | 48.14624 | 18.62035 | 26440 ft | 405 kts | 310° |
| 2026-05-07 11:18 | 48.16582 | 18.58960 | 26920 ft | 407 kts | 309° |
| 2026-05-07 11:18 | 48.18535 | 18.55888 | 27355 ft | 409 kts | 309° |
| 2026-05-07 11:18 | 48.20510 | 18.52774 | 27784 ft | 412 kts | 309° |
| 2026-05-07 11:19 | 48.22474 | 18.49676 | 28203 ft | 414 kts | 309° |
| 2026-05-07 11:19 | 48.24467 | 18.46531 | 28613 ft | 416 kts | 309° |
| 2026-05-07 11:19 | 48.26471 | 18.43367 | 29016 ft | 418 kts | 309° |
| 2026-05-07 11:19 | 48.28478 | 18.40192 | 29412 ft | 421 kts | 309° |
| 2026-05-07 11:20 | 48.30487 | 18.37006 | 29801 ft | 423 kts | 309° |
| 2026-05-07 11:20 | 48.32521 | 18.33774 | 30161 ft | 425 kts | 309° |
| 2026-05-07 11:20 | 48.34535 | 18.30570 | 30477 ft | 427 kts | 309° |
| 2026-05-07 11:20 | 48.36592 | 18.27299 | 30795 ft | 429 kts | 309° |
| 2026-05-07 11:21 | 48.38651 | 18.24023 | 31121 ft | 431 kts | 309° |
| 2026-05-07 11:21 | 48.40719 | 18.20727 | 31443 ft | 433 kts | 308° |
| 2026-05-07 11:21 | 48.42760 | 18.17470 | 31858 ft | 432 kts | 308° |
| 2026-05-07 11:21 | 48.44815 | 18.14184 | 32307 ft | 430 kts | 308° |
| 2026-05-07 11:22 | 48.46863 | 18.10904 | 32750 ft | 429 kts | 308° |
| 2026-05-07 11:22 | 48.48903 | 18.07632 | 33193 ft | 427 kts | 308° |
| 2026-05-07 11:22 | 48.50935 | 18.04374 | 33642 ft | 426 kts | 308° |
| 2026-05-07 11:22 | 48.52962 | 18.01126 | 34059 ft | 424 kts | 308° |
| 2026-05-07 11:23 | 48.54989 | 17.97873 | 34400 ft | 424 kts | 308° |
| 2026-05-07 11:23 | 48.57007 | 17.94619 | 34729 ft | 423 kts | 308° |
| 2026-05-07 11:23 | 48.58995 | 17.91405 | 35026 ft | 423 kts | 307° |
| 2026-05-07 11:23 | 48.61008 | 17.88143 | 35307 ft | 423 kts | 307° |
| 2026-05-07 11:24 | 48.63027 | 17.84871 | 35594 ft | 423 kts | 307° |
| 2026-05-07 11:24 | 48.65046 | 17.81606 | 35866 ft | 424 kts | 307° |
| 2026-05-07 11:24 | 48.67036 | 17.78384 | 35977 ft | 422 kts | 307° |
| 2026-05-07 11:24 | 48.69027 | 17.75162 | 36008 ft | 414 kts | 307° |
| 2026-05-07 11:25 | 48.72913 | 17.68855 | 35995 ft | 409 kts | 307° |
| 2026-05-07 11:25 | 48.76800 | 17.62503 | 35997 ft | 409 kts | 307° |
| 2026-05-07 11:26 | 48.80652 | 17.56189 | 35977 ft | 409 kts | 307° |
| 2026-05-07 11:26 | 48.84585 | 17.49919 | 35977 ft | 411 kts | 309° |
| 2026-05-07 11:27 | 48.88699 | 17.43880 | 35981 ft | 412 kts | 310° |
| 2026-05-07 11:27 | 48.92851 | 17.37846 | 35987 ft | 412 kts | 310° |
| 2026-05-07 11:28 | 48.96962 | 17.31764 | 35988 ft | 412 kts | 309° |
| 2026-05-07 11:28 | 49.00891 | 17.25454 | 35985 ft | 406 kts | 300° |
| 2026-05-07 11:29 | 49.03430 | 17.17980 | 35983 ft | 393 kts | 283° |
| 2026-05-07 11:29 | 49.05203 | 17.10152 | 35984 ft | 393 kts | 283° |
| 2026-05-07 11:30 | 49.07001 | 17.02274 | 35982 ft | 394 kts | 283° |
| 2026-05-07 11:30 | 49.08795 | 16.94388 | 35984 ft | 394 kts | 283° |
| 2026-05-07 11:31 | 49.10579 | 16.86488 | 35988 ft | 394 kts | 283° |
| 2026-05-07 11:31 | 49.12348 | 16.78575 | 35987 ft | 394 kts | 283° |
| 2026-05-07 11:32 | 49.14996 | 16.66694 | 35983 ft | 394 kts | 282° |
| 2026-05-07 11:33 | 49.16758 | 16.58765 | 35978 ft | 394 kts | 283° |
| 2026-05-07 11:33 | 49.18527 | 16.50819 | 35978 ft | 395 kts | 282° |
| 2026-05-07 11:34 | 49.20282 | 16.42869 | 35970 ft | 395 kts | 282° |
| 2026-05-07 11:34 | 49.22029 | 16.34911 | 35971 ft | 395 kts | 282° |
| 2026-05-07 11:35 | 49.23771 | 16.26935 | 35972 ft | 395 kts | 282° |
| 2026-05-07 11:35 | 49.25515 | 16.18944 | 35977 ft | 396 kts | 282° |
| 2026-05-07 11:36 | 49.27254 | 16.10953 | 35977 ft | 396 kts | 282° |
| 2026-05-07 11:36 | 49.28981 | 16.02979 | 35974 ft | 396 kts | 282° |
| 2026-05-07 11:37 | 49.30710 | 15.94955 | 35973 ft | 396 kts | 282° |
| 2026-05-07 11:37 | 49.32429 | 15.86926 | 35968 ft | 396 kts | 282° |
| 2026-05-07 11:38 | 49.34137 | 15.78943 | 35956 ft | 396 kts | 282° |
| 2026-05-07 11:38 | 49.35857 | 15.70897 | 35951 ft | 396 kts | 282° |
| 2026-05-07 11:39 | 49.37549 | 15.62900 | 35955 ft | 396 kts | 282° |
| 2026-05-07 11:39 | 49.39249 | 15.54853 | 35956 ft | 396 kts | 282° |
| 2026-05-07 11:40 | 49.40959 | 15.46778 | 35954 ft | 397 kts | 282° |
| 2026-05-07 11:40 | 49.42660 | 15.38718 | 35954 ft | 397 kts | 282° |
| 2026-05-07 11:41 | 49.44349 | 15.30637 | 35954 ft | 397 kts | 282° |
| 2026-05-07 11:41 | 49.46018 | 15.22602 | 35958 ft | 397 kts | 282° |
| 2026-05-07 11:42 | 49.47692 | 15.14493 | 35954 ft | 398 kts | 282° |
| 2026-05-07 11:42 | 49.49366 | 15.06381 | 35954 ft | 398 kts | 282° |
| 2026-05-07 11:43 | 49.51041 | 14.98266 | 35953 ft | 398 kts | 282° |
| 2026-05-07 11:43 | 49.52702 | 14.90122 | 35960 ft | 399 kts | 282° |
| 2026-05-07 11:44 | 49.54416 | 14.81994 | 35960 ft | 400 kts | 283° |
| 2026-05-07 11:44 | 49.56133 | 14.73861 | 35947 ft | 398 kts | 280° |
| 2026-05-07 11:45 | 49.57517 | 14.65622 | 35944 ft | 397 kts | 278° |
| 2026-05-07 11:45 | 49.58823 | 14.57374 | 35944 ft | 397 kts | 279° |
| 2026-05-07 11:46 | 49.59951 | 14.50509 | 35946 ft | 398 kts | 279° |
| 2026-05-07 11:46 | 49.61576 | 14.40908 | 35946 ft | 398 kts | 280° |
| 2026-05-07 11:47 | 49.62982 | 14.32650 | 35948 ft | 398 kts | 280° |
| 2026-05-07 11:47 | 49.64135 | 14.25766 | 35946 ft | 398 kts | 279° |
| 2026-05-07 11:48 | 49.65515 | 14.17465 | 35948 ft | 399 kts | 279° |
| 2026-05-07 11:48 | 49.66892 | 14.09178 | 35949 ft | 399 kts | 280° |
| 2026-05-07 11:49 | 49.68258 | 14.00877 | 35943 ft | 399 kts | 279° |
| 2026-05-07 11:49 | 49.69613 | 13.92561 | 35948 ft | 399 kts | 280° |
| 2026-05-07 11:50 | 49.70973 | 13.84230 | 35943 ft | 400 kts | 280° |
| 2026-05-07 11:50 | 49.72327 | 13.75894 | 35950 ft | 400 kts | 280° |
| 2026-05-07 11:51 | 49.73672 | 13.67576 | 35952 ft | 401 kts | 280° |
| 2026-05-07 11:51 | 49.75016 | 13.59210 | 35956 ft | 402 kts | 280° |
| 2026-05-07 11:52 | 49.76356 | 13.50812 | 35946 ft | 403 kts | 280° |
| 2026-05-07 11:52 | 49.77690 | 13.42381 | 35948 ft | 404 kts | 280° |
| 2026-05-07 11:53 | 49.79026 | 13.33939 | 35956 ft | 404 kts | 281° |
| 2026-05-07 11:53 | 49.80362 | 13.25474 | 35955 ft | 405 kts | 281° |
| 2026-05-07 11:54 | 49.81696 | 13.16971 | 35951 ft | 405 kts | 281° |
| 2026-05-07 11:54 | 49.83017 | 13.08484 | 35956 ft | 406 kts | 281° |
| 2026-05-07 11:55 | 49.84336 | 12.99986 | 35956 ft | 406 kts | 281° |
| 2026-05-07 11:55 | 49.85648 | 12.91479 | 35957 ft | 406 kts | 281° |
| 2026-05-07 11:56 | 49.86953 | 12.82975 | 35956 ft | 406 kts | 281° |
| 2026-05-07 11:56 | 49.88254 | 12.74457 | 35959 ft | 406 kts | 281° |
| 2026-05-07 11:57 | 49.89546 | 12.65936 | 35961 ft | 406 kts | 281° |
| 2026-05-07 11:57 | 49.90831 | 12.57406 | 35962 ft | 406 kts | 281° |
| 2026-05-07 11:58 | 49.92106 | 12.48940 | 35962 ft | 406 kts | 281° |
| 2026-05-07 11:58 | 49.93379 | 12.40406 | 35963 ft | 406 kts | 281° |
| 2026-05-07 11:59 | 49.94646 | 12.31859 | 35963 ft | 406 kts | 281° |
| 2026-05-07 11:59 | 49.95907 | 12.23297 | 35966 ft | 406 kts | 281° |
| 2026-05-07 12:00 | 49.97168 | 12.14737 | 35966 ft | 406 kts | 281° |
| 2026-05-07 12:00 | 49.98423 | 12.06188 | 35967 ft | 406 kts | 281° |
| 2026-05-07 12:01 | 49.99659 | 11.97690 | 35964 ft | 406 kts | 281° |
| 2026-05-07 12:01 | 50.00897 | 11.89066 | 35959 ft | 406 kts | 280° |
| 2026-05-07 12:02 | 50.02116 | 11.80561 | 35963 ft | 406 kts | 281° |
| 2026-05-07 12:02 | 50.03344 | 11.71995 | 35970 ft | 406 kts | 280° |
| 2026-05-07 12:03 | 50.04562 | 11.63421 | 35968 ft | 406 kts | 280° |
| 2026-05-07 12:03 | 50.05774 | 11.54840 | 35976 ft | 406 kts | 280° |
| 2026-05-07 12:04 | 50.06980 | 11.46258 | 35977 ft | 406 kts | 281° |
| 2026-05-07 12:04 | 50.08182 | 11.37674 | 35982 ft | 406 kts | 281° |
| 2026-05-07 12:05 | 50.09375 | 11.29091 | 35986 ft | 406 kts | 280° |
| 2026-05-07 12:05 | 50.10548 | 11.20549 | 35984 ft | 406 kts | 280° |
| 2026-05-07 12:06 | 50.11722 | 11.11956 | 35987 ft | 405 kts | 280° |
| 2026-05-07 12:06 | 50.12890 | 11.03352 | 35986 ft | 405 kts | 280° |
| 2026-05-07 12:07 | 50.14059 | 10.94761 | 35991 ft | 405 kts | 280° |
| 2026-05-07 12:07 | 50.15225 | 10.86160 | 35997 ft | 405 kts | 280° |
| 2026-05-07 12:08 | 50.16372 | 10.77561 | 35999 ft | 405 kts | 280° |
| 2026-05-07 12:08 | 50.17505 | 10.69013 | 35996 ft | 405 kts | 280° |
| 2026-05-07 12:09 | 50.18646 | 10.60418 | 36002 ft | 404 kts | 280° |
| 2026-05-07 12:09 | 50.19778 | 10.51817 | 35999 ft | 404 kts | 280° |
| 2026-05-07 12:10 | 50.20902 | 10.43225 | 36002 ft | 404 kts | 280° |
| 2026-05-07 12:10 | 50.22019 | 10.34622 | 36006 ft | 404 kts | 280° |
| 2026-05-07 12:11 | 50.23126 | 10.26002 | 36009 ft | 405 kts | 280° |
| 2026-05-07 12:11 | 50.24233 | 10.17380 | 36013 ft | 405 kts | 280° |
| 2026-05-07 12:12 | 50.25330 | 10.08816 | 36015 ft | 405 kts | 280° |
| 2026-05-07 12:12 | 50.26427 | 10.00195 | 36015 ft | 404 kts | 280° |
| 2026-05-07 12:13 | 50.27511 | 9.91577 | 36016 ft | 404 kts | 280° |
| 2026-05-07 12:13 | 50.28589 | 9.82951 | 36018 ft | 404 kts | 280° |
| 2026-05-07 12:14 | 50.29663 | 9.74323 | 36024 ft | 404 kts | 280° |
| 2026-05-07 12:14 | 50.30725 | 9.65710 | 36022 ft | 403 kts | 280° |
| 2026-05-07 12:15 | 50.31783 | 9.57092 | 36016 ft | 403 kts | 280° |
| 2026-05-07 12:15 | 50.32834 | 9.48474 | 36017 ft | 403 kts | 280° |
| 2026-05-07 12:16 | 50.33881 | 9.39850 | 36018 ft | 403 kts | 280° |
| 2026-05-07 12:16 | 50.34925 | 9.31214 | 36021 ft | 404 kts | 280° |
| 2026-05-07 12:17 | 50.35961 | 9.22568 | 36020 ft | 404 kts | 280° |
| 2026-05-07 12:17 | 50.36984 | 9.13919 | 36022 ft | 404 kts | 279° |
| 2026-05-07 12:18 | 50.37997 | 9.05330 | 36024 ft | 404 kts | 279° |
| 2026-05-07 12:18 | 50.39012 | 8.96675 | 36021 ft | 403 kts | 279° |
| 2026-05-07 12:19 | 50.40013 | 8.88026 | 36024 ft | 403 kts | 279° |
| 2026-05-07 12:19 | 50.41013 | 8.79368 | 36026 ft | 403 kts | 279° |
| 2026-05-07 12:20 | 50.42004 | 8.70712 | 36040 ft | 403 kts | 279° |
| 2026-05-07 12:20 | 50.42989 | 8.62056 | 36042 ft | 403 kts | 279° |
| 2026-05-07 12:21 | 50.43971 | 8.53395 | 36044 ft | 403 kts | 279° |
| 2026-05-07 12:21 | 50.44947 | 8.44746 | 36045 ft | 403 kts | 279° |
| 2026-05-07 12:22 | 50.45919 | 8.36091 | 36045 ft | 402 kts | 279° |
| 2026-05-07 12:22 | 50.46874 | 8.27444 | 36040 ft | 402 kts | 279° |
| 2026-05-07 12:23 | 50.47818 | 8.18789 | 36038 ft | 402 kts | 279° |
| 2026-05-07 12:23 | 50.48760 | 8.10139 | 36036 ft | 402 kts | 279° |
| 2026-05-07 12:24 | 50.49705 | 8.01496 | 36041 ft | 401 kts | 279° |
| 2026-05-07 12:24 | 50.50642 | 7.92857 | 36040 ft | 401 kts | 279° |
| 2026-05-07 12:25 | 50.51565 | 7.84281 | 36040 ft | 401 kts | 279° |
| 2026-05-07 12:25 | 50.52485 | 7.75637 | 36047 ft | 400 kts | 279° |
| 2026-05-07 12:26 | 50.53395 | 7.67012 | 36047 ft | 400 kts | 279° |
| 2026-05-07 12:26 | 50.54302 | 7.58348 | 35906 ft | 410 kts | 279° |
| 2026-05-07 12:26 | 50.54769 | 7.53852 | 35658 ft | 418 kts | 279° |
| 2026-05-07 12:27 | 50.55236 | 7.49334 | 35414 ft | 419 kts | 279° |
| 2026-05-07 12:27 | 50.55697 | 7.44819 | 35170 ft | 417 kts | 278° |
| 2026-05-07 12:27 | 50.55911 | 7.40282 | 34766 ft | 416 kts | 271° |
| 2026-05-07 12:27 | 50.55950 | 7.35749 | 34300 ft | 412 kts | 271° |
| 2026-05-07 12:28 | 50.55982 | 7.31258 | 33785 ft | 409 kts | 271° |
| 2026-05-07 12:28 | 50.56011 | 7.26806 | 33232 ft | 406 kts | 271° |
| 2026-05-07 12:28 | 50.56039 | 7.22445 | 32699 ft | 403 kts | 271° |
| 2026-05-07 12:28 | 50.56067 | 7.18061 | 32193 ft | 399 kts | 271° |
| 2026-05-07 12:29 | 50.56058 | 7.13714 | 31704 ft | 396 kts | 269° |
| 2026-05-07 12:29 | 50.55984 | 7.09404 | 31208 ft | 393 kts | 268° |
| 2026-05-07 12:29 | 50.55874 | 7.05124 | 30726 ft | 390 kts | 268° |
| 2026-05-07 12:29 | 50.55749 | 7.00879 | 30252 ft | 387 kts | 267° |
| 2026-05-07 12:30 | 50.55627 | 6.96669 | 29721 ft | 384 kts | 268° |
| 2026-05-07 12:30 | 50.55515 | 6.92491 | 29172 ft | 381 kts | 268° |
| 2026-05-07 12:30 | 50.55413 | 6.88336 | 28642 ft | 379 kts | 268° |
| 2026-05-07 12:30 | 50.55316 | 6.84208 | 28116 ft | 376 kts | 268° |
| 2026-05-07 12:31 | 50.55220 | 6.80107 | 27597 ft | 374 kts | 268° |
| 2026-05-07 12:31 | 50.55122 | 6.76026 | 27092 ft | 372 kts | 268° |
| 2026-05-07 12:31 | 50.55024 | 6.71968 | 26596 ft | 371 kts | 268° |
| 2026-05-07 12:31 | 50.55123 | 6.67936 | 26107 ft | 369 kts | 277° |
| 2026-05-07 12:32 | 50.55579 | 6.63983 | 25623 ft | 367 kts | 280° |
| 2026-05-07 12:32 | 50.56064 | 6.60052 | 25149 ft | 364 kts | 280° |
| 2026-05-07 12:32 | 50.56539 | 6.56158 | 24689 ft | 362 kts | 280° |
| 2026-05-07 12:32 | 50.57007 | 6.52280 | 24231 ft | 360 kts | 279° |
| 2026-05-07 12:33 | 50.57926 | 6.44592 | 23279 ft | 355 kts | 279° |
| 2026-05-07 12:33 | 50.58382 | 6.40775 | 22753 ft | 353 kts | 279° |
| 2026-05-07 12:33 | 50.58832 | 6.36983 | 22238 ft | 352 kts | 279° |
| 2026-05-07 12:34 | 50.59280 | 6.33208 | 21728 ft | 350 kts | 279° |
| 2026-05-07 12:34 | 50.59725 | 6.29449 | 21222 ft | 349 kts | 279° |
| 2026-05-07 12:34 | 50.60167 | 6.25698 | 20740 ft | 348 kts | 279° |
| 2026-05-07 12:34 | 50.60608 | 6.21969 | 20256 ft | 346 kts | 279° |
| 2026-05-07 12:35 | 50.61049 | 6.18253 | 19781 ft | 345 kts | 279° |
| 2026-05-07 12:35 | 50.61483 | 6.14591 | 19323 ft | 343 kts | 279° |
| 2026-05-07 12:35 | 50.61918 | 6.10903 | 18864 ft | 342 kts | 279° |
| 2026-05-07 12:35 | 50.62347 | 6.07224 | 18412 ft | 341 kts | 279° |
| 2026-05-07 12:36 | 50.62773 | 6.03548 | 17907 ft | 340 kts | 279° |
| 2026-05-07 12:36 | 50.63196 | 5.99886 | 17393 ft | 339 kts | 279° |
| 2026-05-07 12:36 | 50.63617 | 5.96235 | 16889 ft | 339 kts | 279° |
| 2026-05-07 12:36 | 50.64038 | 5.92586 | 16397 ft | 338 kts | 279° |
| 2026-05-07 12:37 | 50.64456 | 5.88947 | 15906 ft | 337 kts | 279° |
| 2026-05-07 12:37 | 50.64747 | 5.86541 | 15595 ft | 337 kts | 283° |
| 2026-05-07 12:37 | 50.65511 | 5.83061 | 15126 ft | 337 kts | 295° |
| 2026-05-07 12:37 | 50.66573 | 5.79770 | 14658 ft | 336 kts | 296° |
| 2026-05-07 12:38 | 50.67633 | 5.76501 | 14180 ft | 334 kts | 296° |
| 2026-05-07 12:38 | 50.68685 | 5.73243 | 13724 ft | 333 kts | 296° |
| 2026-05-07 12:38 | 50.69732 | 5.69987 | 13216 ft | 332 kts | 296° |
| 2026-05-07 12:38 | 50.70768 | 5.66751 | 12711 ft | 330 kts | 296° |
| 2026-05-07 12:39 | 50.71797 | 5.63533 | 12222 ft | 328 kts | 296° |
| 2026-05-07 12:39 | 50.72826 | 5.60324 | 11733 ft | 326 kts | 296° |
| 2026-05-07 12:39 | 50.73845 | 5.57139 | 11254 ft | 324 kts | 296° |
| 2026-05-07 12:39 | 50.74854 | 5.53977 | 10781 ft | 322 kts | 296° |
| 2026-05-07 12:40 | 50.75860 | 5.50824 | 10317 ft | 320 kts | 296° |
| 2026-05-07 12:40 | 50.76857 | 5.47695 | 9842 ft | 318 kts | 296° |
| 2026-05-07 12:40 | 50.77848 | 5.44580 | 9329 ft | 316 kts | 296° |
| 2026-05-07 12:40 | 50.78829 | 5.41484 | 8824 ft | 314 kts | 296° |
| 2026-05-07 12:41 | 50.79804 | 5.38401 | 8326 ft | 312 kts | 296° |
| 2026-05-07 12:41 | 50.80773 | 5.35346 | 7838 ft | 310 kts | 296° |
| 2026-05-07 12:41 | 50.81736 | 5.32313 | 7351 ft | 307 kts | 296° |
| 2026-05-07 12:41 | 50.82685 | 5.29313 | 7034 ft | 299 kts | 296° |
| 2026-05-07 12:42 | 50.83578 | 5.26481 | 7000 ft | 282 kts | 296° |
| 2026-05-07 12:42 | 50.84434 | 5.23763 | 7003 ft | 274 kts | 296° |
| 2026-05-07 12:42 | 50.85280 | 5.21071 | 7002 ft | 272 kts | 296° |
| 2026-05-07 12:42 | 50.86117 | 5.18387 | 7001 ft | 272 kts | 296° |
| 2026-05-07 12:43 | 50.86950 | 5.15696 | 7003 ft | 272 kts | 296° |
| 2026-05-07 12:43 | 50.87658 | 5.12929 | 7003 ft | 272 kts | 281° |
| 2026-05-07 12:43 | 50.87600 | 5.09954 | 7004 ft | 272 kts | 257° |
| 2026-05-07 12:43 | 50.87097 | 5.07067 | 7003 ft | 273 kts | 253° |
| 2026-05-07 12:44 | 50.86544 | 5.04199 | 7002 ft | 272 kts | 253° |
| 2026-05-07 12:44 | 50.85985 | 5.01330 | 7001 ft | 272 kts | 253° |
| 2026-05-07 12:44 | 50.85427 | 4.98470 | 7003 ft | 272 kts | 253° |
| 2026-05-07 12:44 | 50.84868 | 4.95608 | 7004 ft | 272 kts | 253° |
| 2026-05-07 12:45 | 50.84308 | 4.92749 | 6772 ft | 271 kts | 253° |
| 2026-05-07 12:45 | 50.83756 | 4.89942 | 6530 ft | 270 kts | 253° |
| 2026-05-07 12:45 | 50.83197 | 4.87113 | 6265 ft | 268 kts | 253° |
| 2026-05-07 12:45 | 50.82640 | 4.84301 | 6005 ft | 268 kts | 253° |
| 2026-05-07 12:46 | 50.82081 | 4.81494 | 5740 ft | 267 kts | 253° |
| 2026-05-07 12:46 | 50.81522 | 4.78686 | 5479 ft | 267 kts | 253° |
| 2026-05-07 12:46 | 50.80962 | 4.75892 | 5226 ft | 266 kts | 253° |
| 2026-05-07 12:46 | 50.80401 | 4.73104 | 4977 ft | 266 kts | 252° |
| 2026-05-07 12:47 | 50.79574 | 4.70512 | 4709 ft | 266 kts | 229° |
| 2026-05-07 12:47 | 50.78142 | 4.68672 | 4443 ft | 266 kts | 213° |
| 2026-05-07 12:47 | 50.76572 | 4.67112 | 4192 ft | 267 kts | 209° |
| 2026-05-07 12:47 | 50.74846 | 4.66090 | 3927 ft | 263 kts | 194° |
| 2026-05-07 12:48 | 50.73094 | 4.65406 | 3667 ft | 256 kts | 192° |
| 2026-05-07 12:48 | 50.71386 | 4.64765 | 3413 ft | 249 kts | 193° |
| 2026-05-07 12:48 | 50.69743 | 4.64147 | 3155 ft | 243 kts | 194° |
| 2026-05-07 12:48 | 50.68254 | 4.63024 | 2881 ft | 236 kts | 222° |
| 2026-05-07 12:49 | 50.67385 | 4.60909 | 2633 ft | 230 kts | 256° |
| 2026-05-07 12:49 | 50.67230 | 4.58438 | 2392 ft | 225 kts | 270° |
| 2026-05-07 12:49 | 50.67322 | 4.55999 | 2134 ft | 222 kts | 280° |
| 2026-05-07 12:49 | 50.67597 | 4.53640 | 2000 ft | 213 kts | 282° |
| 2026-05-07 12:50 | 50.67884 | 4.51425 | 2004 ft | 199 kts | 283° |
| 2026-05-07 12:50 | 50.68152 | 4.49388 | 2018 ft | 182 kts | 282° |
| 2026-05-07 12:50 | 50.68396 | 4.47520 | 1991 ft | 166 kts | 282° |
| 2026-05-07 12:50 | 50.68616 | 4.45820 | 1990 ft | 152 kts | 283° |
| 2026-05-07 12:51 | 50.68931 | 4.44289 | 1964 ft | 144 kts | 312° |
| 2026-05-07 12:51 | 50.69705 | 4.43262 | 2149 ft | 156 kts | 329° |
| 2026-05-07 12:51 | 50.70727 | 4.42453 | 1969 ft | 165 kts | 347° |
| 2026-05-07 12:51 | 50.71848 | 4.42332 | 1995 ft | 162 kts | 9° |
| 2026-05-07 12:52 | 50.72944 | 4.42741 | 1996 ft | 162 kts | 15° |
| 2026-05-07 12:52 | 50.74029 | 4.43183 | 2005 ft | 162 kts | 15° |
| 2026-05-07 12:52 | 50.75115 | 4.43624 | 2008 ft | 161 kts | 15° |
| 2026-05-07 12:52 | 50.76199 | 4.44064 | 2008 ft | 161 kts | 15° |
| 2026-05-07 12:53 | 50.77287 | 4.44505 | 2003 ft | 161 kts | 15° |
| 2026-05-07 12:53 | 50.78370 | 4.44944 | 2005 ft | 161 kts | 15° |
| 2026-05-07 12:53 | 50.79458 | 4.45385 | 1999 ft | 162 kts | 15° |
| 2026-05-07 12:53 | 50.80537 | 4.45823 | 1865 ft | 162 kts | 15° |
| 2026-05-07 12:54 | 50.81604 | 4.46257 | 1673 ft | 152 kts | 15° |
| 2026-05-07 12:54 | 50.82600 | 4.46661 | 1480 ft | 144 kts | 15° |
| 2026-05-07 12:54 | 50.83562 | 4.47052 | 1298 ft | 140 kts | 15° |
| 2026-05-07 12:54 | 50.84478 | 4.47424 | 1118 ft | 134 kts | 15° |
| 2026-05-07 12:55 | 50.85378 | 4.47791 | 933 ft | 133 kts | 15° |
| 2026-05-07 12:55 | 50.86268 | 4.48157 | 709 ft | 132 kts | 15° |
| 2026-05-07 12:55 | 50.87154 | 4.48516 | 521 ft | 131 kts | 16° |
| 2026-05-07 12:55 | 50.88035 | 4.48865 | 378 ft | 131 kts | 16° |
| 2026-05-07 12:56 | 50.88913 | 4.49234 | 203 ft | 130 kts | 17° |
| 2026-05-07 12:56 | 50.89697 | 4.49556 | 161 ft | 100 kts | 14° |
| 2026-05-07 12:56 | 50.90229 | 4.49769 | 140 ft | 56 kts | 14° |
| 2026-05-07 12:56 | 50.90527 | 4.49893 | 127 ft | 34 kts | 14° |
| 2026-05-07 12:57 | 50.90768 | 4.49922 | 118 ft | 36 kts | 352° |
| 2026-05-07 12:57 | 50.90850 | 4.49880 | 113 ft | 0 kts | 321° |
| 2026-05-07 12:58 | 50.90863 | 4.49858 | 115 ft | 8 kts | 307° |
| 2026-05-07 12:58 | 50.90847 | 4.49744 | 116 ft | 12 kts | 227° |
| 2026-05-07 12:58 | 50.90812 | 4.49651 | 116 ft | 9 kts | 241° |
| 2026-05-07 12:58 | 50.90773 | 4.49606 | 119 ft | 5 kts | 200° |
| 2026-05-07 12:59 | 50.90736 | 4.49589 | 119 ft | 10 kts | 195° |
| 2026-05-07 12:59 | 50.90670 | 4.49561 | 120 ft | 8 kts | 194° |
| 2026-05-07 12:59 | 50.90625 | 4.49543 | 126 ft | 7 kts | 194° |
| 2026-05-07 12:59 | 50.90552 | 4.49515 | 128 ft | 15 kts | 194° |
| 2026-05-07 13:00 | 50.90444 | 4.49457 | 128 ft | 17 kts | 219° |
| 2026-05-07 13:00 | 50.90395 | 4.49294 | 134 ft | 16 kts | 245° |
| 2026-05-07 13:00 | 50.90350 | 4.49144 | 135 ft | 14 kts | 244° |
| 2026-05-07 13:00 | 50.90313 | 4.49012 | 136 ft | 13 kts | 245° |
| 2026-05-07 13:01 | 50.90277 | 4.48891 | 135 ft | 12 kts | 245° |
| 2026-05-07 13:01 | 50.90244 | 4.48773 | 135 ft | 12 kts | 246° |
| 2026-05-07 13:01 | 50.90229 | 4.48685 | 134 ft | 3 kts | 305° |
| 2026-05-07 13:01 | 50.90268 | 4.48650 | 127 ft | 9 kts | 337° |
| 2026-05-07 13:02 | 50.90292 | 4.48636 | 125 ft | 0 kts | 338° |